Time;durP1;ratioP1;P1;durP2;ratioP2;P2;SDS_P1;SDS_P2;PMS_P1;PMS_P2;Temp;Humidity;BMP_temperature;BMP_pressure;BME280_temperature;BME280_humidity;BME280_pressure;Samples;Min_cycle;Max_cycle;Signal;HPM_P1;HPM_P2
2022/03/11 00:02:13;;;;;;;29.10;14.18;;;;;;;-2.81;50.52;102156.09;2146345;81;28223;-69
2022/03/11 00:05:15;;;;;;;36.48;16.32;;;;;;;-2.84;50.64;102164.72;2149789;82;28614;-69
2022/03/11 00:08:16;;;;;;;32.93;15.15;;;;;;;-2.86;50.70;102160.27;2142955;83;31007;-69
2022/03/11 00:11:18;;;;;;;34.58;15.40;;;;;;;-2.88;50.76;102161.50;2126197;83;32931;-69
2022/03/11 00:14:20;;;;;;;39.50;17.27;;;;;;;-2.91;50.74;102164.05;2143007;83;29307;-70
2022/03/11 00:17:23;;;;;;;30.57;14.68;;;;;;;-2.92;50.97;102167.50;2126325;83;27676;-69
2022/03/11 00:20:24;;;;;;;28.47;14.30;;;;;;;-2.96;50.98;102167.78;2131843;83;29531;-68
2022/03/11 00:23:26;;;;;;;40.65;17.05;;;;;;;-2.98;51.04;102169.48;2090705;85;31070;-69
2022/03/11 00:26:28;;;;;;;35.90;17.42;;;;;;;-3.00;51.09;102168.94;2124200;83;33076;-70
2022/03/11 00:29:29;;;;;;;35.40;16.20;;;;;;;-3.03;51.28;102172.34;2112159;82;29312;-71
2022/03/11 00:32:31;;;;;;;34.10;15.60;;;;;;;-3.05;51.20;102161.78;2118797;81;27751;-69
2022/03/11 00:35:35;;;;;;;36.95;16.87;;;;;;;-3.06;51.35;102163.93;2129499;83;27740;-70
2022/03/11 00:38:37;;;;;;;42.48;17.37;;;;;;;-3.10;51.37;102156.81;2127531;82;31259;-70
2022/03/11 00:41:39;;;;;;;37.65;16.23;;;;;;;-3.11;51.55;102147.56;2122980;82;32949;-70
2022/03/11 00:44:40;;;;;;;34.92;17.90;;;;;;;-3.15;51.52;102147.88;2098835;83;29422;-69
2022/03/11 00:47:42;;;;;;;41.05;18.55;;;;;;;-3.18;51.54;102142.95;2134053;82;27664;-70
2022/03/11 00:50:44;;;;;;;36.73;15.93;;;;;;;-3.20;51.76;102146.80;2139707;83;29427;-69
2022/03/11 00:53:46;;;;;;;37.48;17.67;;;;;;;-3.23;51.78;102145.41;2123521;83;31009;-70
2022/03/11 00:56:47;;;;;;;38.90;17.77;;;;;;;-3.25;51.80;102140.09;2136849;83;33795;-70
2022/03/11 00:59:49;;;;;;;37.88;17.73;;;;;;;-3.27;51.75;102149.62;2136312;83;29321;-69
2022/03/11 01:02:51;;;;;;;38.05;17.62;;;;;;;-3.31;51.93;102149.05;2135370;83;27692;-69
2022/03/11 01:05:53;;;;;;;37.90;17.25;;;;;;;-3.32;51.90;102145.05;2122733;83;28616;-73
2022/03/11 01:08:54;;;;;;;33.60;16.97;;;;;;;-3.34;52.11;102150.64;2143516;82;31030;-68
2022/03/11 01:11:56;;;;;;;47.60;19.98;;;;;;;-3.37;52.27;102150.12;2135919;82;33025;-72
2022/03/11 01:14:58;;;;;;;40.83;18.87;;;;;;;-3.39;52.17;102146.11;2139630;83;29324;-71
2022/03/11 01:18:00;;;;;;;35.58;18.70;;;;;;;-3.42;52.29;102140.78;2117678;83;27698;-70
2022/03/11 01:21:02;;;;;;;38.78;17.60;;;;;;;-3.44;52.43;102143.76;2130844;83;29531;-72
2022/03/11 01:24:04;;;;;;;46.53;18.73;;;;;;;-3.47;52.39;102138.39;2081392;85;31909;-71
2022/03/11 01:27:06;;;;;;;40.60;19.10;;;;;;;-3.49;52.56;102140.49;2114643;84;33661;-72
2022/03/11 01:30:09;;;;;;;40.80;19.05;;;;;;;-3.53;52.50;102133.82;2140274;83;29325;-71
2022/03/11 01:33:11;;;;;;;38.13;18.27;;;;;;;-3.55;52.67;102134.17;2125114;81;27667;-71
2022/03/11 01:36:14;;;;;;;36.33;17.42;;;;;;;-3.59;52.78;102132.70;2146561;82;28878;-71
2022/03/11 01:39:15;;;;;;;38.33;17.50;;;;;;;-3.63;53.08;102127.73;2126643;83;31001;-72
2022/03/11 01:42:17;;;;;;;39.70;18.65;;;;;;;-3.66;53.02;102125.90;2121921;82;33001;-71
2022/03/11 01:45:19;;;;;;;36.85;18.05;;;;;;;-3.67;53.08;102117.56;2127329;83;30578;-72
2022/03/11 01:48:20;;;;;;;60.12;19.05;;;;;;;-3.69;53.31;102117.92;2127670;83;27726;-71
2022/03/11 01:51:23;;;;;;;39.23;18.42;;;;;;;-3.71;53.16;102120.02;2106468;84;28616;-71
2022/03/11 01:54:24;;;;;;;47.35;19.62;;;;;;;-3.73;53.20;102120.37;2123424;82;31246;-72
2022/03/11 01:57:26;;;;;;;38.70;18.10;;;;;;;-3.75;53.24;102119.41;2145900;82;32975;-71
2022/03/11 02:00:28;;;;;;;40.20;19.05;;;;;;;-3.78;53.60;102118.89;2124928;83;29487;-71
2022/03/11 02:03:31;;;;;;;35.52;18.50;;;;;;;-3.80;53.42;102115.75;2105943;84;27814;-72
2022/03/11 02:06:34;;;;;;;37.93;17.92;;;;;;;-3.83;53.48;102117.80;2125098;83;28704;-72
2022/03/11 02:09:36;;;;;;;35.25;18.50;;;;;;;-3.87;53.59;102123.34;2130028;82;31659;-73
2022/03/11 02:12:38;;;;;;;36.35;17.12;;;;;;;-3.89;53.57;102121.08;2095340;83;32945;-73
2022/03/11 02:15:39;;;;;;;35.60;17.07;;;;;;;-3.91;53.76;102124.05;2146201;82;29358;-73
2022/03/11 02:18:41;;;;;;;39.18;18.37;;;;;;;-3.93;53.79;102123.09;2125620;83;27700;-72
2022/03/11 02:21:46;;;;;;;38.53;17.50;;;;;;;-3.96;53.75;102124.27;2146325;82;28596;-72
2022/03/11 02:24:47;;;;;;;;;;;;;;;-3.97;53.89;102119.91;2136622;83;31851;-73
2022/03/11 02:27:49;;;;;;;39.05;17.60;;;;;;;-4.00;53.92;102122.39;2105560;84;33695;-73
2022/03/11 02:30:51;;;;;;;39.00;17.07;;;;;;;-4.04;53.97;102120.48;2109638;84;29471;-72
2022/03/11 02:33:53;;;;;;;39.10;18.40;;;;;;;-4.07;54.20;102113.80;2127015;83;27696;-73
2022/03/11 02:36:54;;;;;;;45.90;20.37;;;;;;;-4.12;54.22;102109.27;2131688;82;28752;-72
2022/03/11 02:39:56;;;;;;;44.67;21.70;;;;;;;-4.13;54.31;102114.45;2140463;83;31215;-73
2022/03/11 02:42:58;;;;;;;76.75;34.67;;;;;;;-4.17;54.52;102118.69;2125150;83;33766;-73
2022/03/11 02:46:00;;;;;;;55.83;23.62;;;;;;;-4.19;54.46;102120.73;2142821;83;29356;-74
2022/03/11 02:49:02;;;;;;;51.68;22.95;;;;;;;-4.22;54.67;102121.52;2126055;83;27602;-73
2022/03/11 02:52:05;;;;;;;39.18;17.10;;;;;;;-4.24;54.74;102120.98;2134757;83;28641;-74
2022/03/11 02:55:08;;;;;;;49.25;23.90;;;;;;;-4.27;55.19;102113.48;2104622;84;31309;-74
2022/03/11 02:58:10;;;;;;;49.00;23.73;;;;;;;-4.28;55.13;102109.09;2126492;83;32987;-74
2022/03/11 03:01:11;;;;;;;47.17;23.40;;;;;;;-4.31;54.95;102106.77;2131768;82;29313;-74
2022/03/11 03:04:13;;;;;;;34.27;18.53;;;;;;;-4.32;55.00;102110.22;2142741;83;27767;-74
2022/03/11 03:07:15;;;;;;;37.67;18.07;;;;;;;-4.35;55.04;102114.88;2126123;83;28666;-73
2022/03/11 03:10:17;;;;;;;39.35;17.75;;;;;;;-4.34;55.52;102118.41;2157317;82;30907;-74
2022/03/11 03:13:18;;;;;;;49.08;21.65;;;;;;;-4.37;55.57;102114.36;2156866;82;32939;-74
2022/03/11 03:16:20;;;;;;;39.33;18.75;;;;;;;-4.39;55.46;102108.16;2126068;83;29299;-74
2022/03/11 03:19:22;;;;;;;41.15;19.95;;;;;;;-4.40;55.37;102113.82;2142564;83;27695;-74
2022/03/11 03:22:24;;;;;;;38.40;19.05;;;;;;;-4.41;55.59;102115.95;2132671;82;28813;-74
2022/03/11 03:25:25;;;;;;;45.25;21.30;;;;;;;-4.42;55.59;102120.28;2139222;82;31020;-74
2022/03/11 03:28:27;;;;;;;43.00;20.17;;;;;;;-4.45;55.50;102112.30;2140506;83;33085;-74
2022/03/11 03:31:29;;;;;;;37.65;17.70;;;;;;;-4.47;55.66;102112.68;2110856;82;29307;-74
2022/03/11 03:34:34;;;;;;;37.15;18.73;;;;;;;-4.49;55.76;102112.12;2140208;82;27767;-73
2022/03/11 03:37:36;;;;;;;40.50;19.35;;;;;;;-4.51;56.00;102112.46;2117197;83;29544;-73
2022/03/11 03:40:38;;;;;;;34.98;18.17;;;;;;;-4.55;56.03;102106.22;2140081;83;30959;-73
2022/03/11 03:43:39;;;;;;;37.35;17.87;;;;;;;-4.56;56.18;102108.36;2117311;84;33073;-73
2022/03/11 03:46:41;;;;;;;42.43;18.62;;;;;;;-4.58;56.42;102110.01;2140154;83;29315;-74
2022/03/11 03:49:43;;;;;;;43.10;20.23;;;;;;;-4.62;56.55;102107.69;2117328;83;27669;-74
2022/03/11 03:52:45;;;;;;;50.98;21.40;;;;;;;-4.63;56.71;102110.25;2130605;83;29542;-74
2022/03/11 03:55:46;;;;;;;41.35;19.90;;;;;;;-4.65;56.75;102107.98;2116757;83;31058;-74
2022/03/11 03:58:48;;;;;;;41.63;22.00;;;;;;;-4.69;56.50;102108.24;2140067;83;33819;-75
2022/03/11 04:01:50;;;;;;;47.17;22.35;;;;;;;-4.71;56.52;102112.52;2106996;84;29311;-75
2022/03/11 04:04:52;;;;;;;50.43;22.45;;;;;;;-4.72;56.53;102117.30;2101608;84;27736;-75
2022/03/11 04:07:53;;;;;;;46.02;20.62;;;;;;;-4.76;56.73;102113.62;2138877;83;28859;-77
2022/03/11 04:10:55;;;;;;;41.20;19.98;;;;;;;-4.78;56.63;102117.89;2096086;83;31055;-69
2022/03/11 04:13:58;;;;;;;41.92;20.17;;;;;;;-4.79;56.92;102114.80;2129257;83;32949;-72
2022/03/11 04:17:00;;;;;;;36.68;18.30;;;;;;;-4.82;56.73;102114.70;2094740;85;29320;-71
2022/03/11 04:20:03;;;;;;;32.50;17.70;;;;;;;-4.84;56.71;102112.82;2131086;83;27720;-70
2022/03/11 04:23:04;;;;;;;40.75;18.92;;;;;;;-4.84;56.78;102114.13;2101241;83;28686;-71
2022/03/11 04:26:06;;;;;;;37.20;18.55;;;;;;;-4.86;57.08;102111.86;2117354;84;30934;-70
2022/03/11 04:29:08;;;;;;;43.17;18.75;;;;;;;-4.87;56.75;102124.05;2130891;83;33093;-69
2022/03/11 04:32:10;;;;;;;44.63;18.35;;;;;;;-4.88;56.75;102128.37;2082330;85;29330;-70
2022/03/11 04:35:12;;;;;;;35.63;17.42;;;;;;;-4.88;56.91;102127.48;2121535;83;28180;-70
2022/03/11 04:38:13;;;;;;;40.08;18.50;;;;;;;-4.91;56.79;102123.43;2142023;83;28328;-70
2022/03/11 04:41:15;;;;;;;38.63;18.37;;;;;;;-4.93;56.87;102115.53;2125273;83;30985;-70
2022/03/11 04:44:17;;;;;;;37.25;16.80;;;;;;;-4.93;56.70;102115.53;2141938;83;33173;-70
2022/03/11 04:47:19;;;;;;;38.15;17.67;;;;;;;-4.94;56.74;102120.67;2126039;83;30170;-70
2022/03/11 04:50:20;;;;;;;38.45;17.80;;;;;;;-4.96;56.67;102121.05;2142894;83;27774;-70
2022/03/11 04:53:23;;;;;;;37.48;16.65;;;;;;;-4.98;56.81;102117.05;2126439;83;28670;-70
2022/03/11 04:56:24;;;;;;;38.23;16.40;;;;;;;-4.99;57.08;102116.98;2142788;82;31850;-70
2022/03/11 04:59:26;;;;;;;39.83;17.37;;;;;;;-4.99;56.70;102116.98;2132828;82;33863;-71
2022/03/11 05:02:28;;;;;;;38.38;17.12;;;;;;;-4.99;56.59;102121.79;2157814;82;29347;-70
2022/03/11 05:05:30;;;;;;;39.65;16.23;;;;;;;-5.00;56.56;102124.34;2157808;82;27722;-70
2022/03/11 05:08:32;;;;;;;38.70;17.23;;;;;;;-5.00;56.47;102121.73;2157815;82;28611;-70
2022/03/11 05:11:33;;;;;;;36.45;15.30;;;;;;;-5.00;56.43;102126.53;2157990;82;30984;-70
2022/03/11 05:14:35;;;;;;;41.05;17.98;;;;;;;-5.00;56.43;102130.45;2157698;82;33045;-69
2022/03/11 05:17:37;;;;;;;34.43;17.50;;;;;;;-4.99;56.35;102128.32;2157729;82;29309;-70
2022/03/11 05:20:39;;;;;;;34.80;16.15;;;;;;;-4.99;56.35;102120.91;2157589;82;27660;-70
2022/03/11 05:23:40;;;;;;;37.70;16.02;;;;;;;-4.99;56.33;102132.24;2136939;82;28862;-70
2022/03/11 05:26:42;;;;;;;35.58;16.97;;;;;;;-4.97;56.34;102134.94;2142568;83;30988;-70
2022/03/11 05:29:44;;;;;;;36.73;17.02;;;;;;;-4.97;56.35;102132.33;2126223;83;33725;-70
2022/03/11 05:32:46;;;;;;;37.95;15.63;;;;;;;-4.97;56.35;102134.52;2136580;83;30248;-70
2022/03/11 05:35:48;;;;;;;39.35;16.48;;;;;;;-4.95;56.28;102141.10;2089707;85;27945;-70
2022/03/11 05:38:50;;;;;;;35.55;15.85;;;;;;;-4.95;56.13;102139.40;2120758;83;28970;-71
2022/03/11 05:41:52;;;;;;;37.58;18.32;;;;;;;-4.93;56.13;102141.67;2141832;83;31019;-70
2022/03/11 05:44:54;;;;;;;35.08;15.43;;;;;;;-4.90;56.06;102144.42;2126119;83;33998;-70
2022/03/11 05:47:55;;;;;;;36.45;17.52;;;;;;;-4.86;56.07;102140.61;2142864;83;29312;-70
2022/03/11 05:50:57;;;;;;;39.48;16.32;;;;;;;-4.83;56.05;102144.67;2126355;83;27677;-70
2022/03/11 05:53:59;;;;;;;39.90;14.83;;;;;;;-4.81;56.03;102145.64;2108334;83;28466;-69
2022/03/11 05:57:01;;;;;;;38.40;16.77;;;;;;;-4.78;55.98;102144.47;2090433;85;30552;-70
2022/03/11 06:00:06;;;;;;;34.33;15.80;;;;;;;-4.74;55.95;102147.27;2100498;84;33731;-69
2022/03/11 06:03:08;;;;;;;41.75;17.05;;;;;;;-4.68;55.95;102149.69;2100382;84;29376;-70
2022/03/11 06:06:09;;;;;;;31.87;15.23;;;;;;;-4.63;55.97;102142.94;2100197;84;27779;-70
2022/03/11 06:09:11;;;;;;;37.15;15.48;;;;;;;-4.58;55.81;102146.62;2106649;84;29279;-69
2022/03/11 06:12:13;;;;;;;36.80;15.85;;;;;;;-4.50;55.73;102144.33;2120117;83;31804;-69
2022/03/11 06:15:19;;;;;;;43.70;15.25;;;;;;;-4.44;55.68;102141.55;2119370;84;32974;-70
2022/03/11 06:18:18;;;;;;;34.38;15.45;;;;;;;-4.34;55.44;102144.14;2130198;83;30119;-71
2022/03/11 06:21:20;;;;;;;34.75;15.48;;;;;;;-4.23;55.28;102139.36;2136304;82;27729;-69
2022/03/11 06:24:22;;;;;;;30.82;15.08;;;;;;;-4.12;55.02;102139.37;2157640;82;28778;-70
2022/03/11 06:27:24;;;;;;;34.00;14.73;;;;;;;-3.93;55.00;102145.34;2158498;81;31147;-69
2022/03/11 06:30:25;;;;;;;29.45;14.90;;;;;;;-3.60;54.96;102144.00;2158379;82;33794;-69
2022/03/11 06:33:27;;;;;;;36.63;15.28;;;;;;;-3.13;53.73;102143.98;2158419;81;29369;-70
2022/03/11 06:36:29;;;;;;;33.58;15.23;;;;;;;-2.70;53.77;102148.16;2154243;81;27699;-70
2022/03/11 06:39:31;;;;;;;30.95;14.50;;;;;;;-2.29;52.59;102150.42;2115605;83;28683;-69
2022/03/11 06:42:38;;;;;;;27.32;14.45;;;;;;;-1.92;52.55;102152.94;2101266;83;31151;-70
2022/03/11 06:45:39;;;;;;;32.98;15.20;;;;;;;-1.62;51.92;102152.52;2095629;84;33827;-70
2022/03/11 06:48:41;;;;;;;38.60;15.83;;;;;;;-1.28;51.52;102149.17;2097087;84;30419;-71
2022/03/11 06:51:43;;;;;;;33.85;14.55;;;;;;;-0.92;49.64;102153.72;2113310;82;27684;-70
2022/03/11 06:54:44;;;;;;;32.42;15.13;;;;;;;-0.64;50.19;102155.77;2157631;82;28623;-70
2022/03/11 06:57:47;;;;;;;30.68;14.73;;;;;;;-0.27;50.55;102145.30;2145134;82;31028;-70
2022/03/11 07:00:49;;;;;;;25.62;13.72;;;;;;;0.12;50.04;102154.12;2132691;83;32999;-69
2022/03/11 07:03:51;;;;;;;28.50;14.07;;;;;;;0.47;48.68;102150.53;2132827;83;30145;-70
2022/03/11 07:06:53;;;;;;;28.98;14.70;;;;;;;0.74;48.36;102152.44;2114066;82;27594;-70
2022/03/11 07:09:55;;;;;;;22.22;13.58;;;;;;;1.06;49.10;102154.84;2109688;84;28737;-70
2022/03/11 07:12:59;;;;;;;28.83;14.35;;;;;;;1.40;47.57;102158.58;2110070;84;31849;-68
2022/03/11 07:16:00;;;;;;;26.30;14.83;;;;;;;1.61;46.56;102154.10;2109835;84;32948;-69
2022/03/11 07:19:02;;;;;;;28.77;14.98;;;;;;;1.86;46.59;102151.86;2142789;83;29491;-69
2022/03/11 07:22:05;;;;;;;32.80;15.25;;;;;;;2.10;45.42;102145.20;2137156;83;27860;-69
2022/03/11 07:25:07;;;;;;;27.90;14.80;;;;;;;2.36;45.85;102141.63;2135337;83;28652;-69
2022/03/11 07:28:11;;;;;;;26.33;16.32;;;;;;;2.58;44.59;102145.45;2109647;84;31192;-68
2022/03/11 07:31:12;;;;;;;34.13;15.72;;;;;;;2.81;45.15;102131.63;2109118;84;33931;-68
2022/03/11 07:34:15;;;;;;;26.73;12.73;;;;;;;3.08;44.04;102135.88;2109565;84;30273;-68
2022/03/11 07:37:20;;;;;;;27.07;13.45;;;;;;;3.21;42.95;102135.59;2086013;85;27736;-69
2022/03/11 07:40:21;;;;;;;22.27;12.30;;;;;;;3.39;41.93;102141.08;2110002;83;28737;-67
2022/03/11 07:43:27;;;;;;;20.55;11.68;;;;;;;3.64;42.11;102137.35;2103669;84;27744;-68
2022/03/11 07:46:29;;;;;;;25.70;13.08;;;;;;;3.76;40.86;102147.15;2091251;85;32989;-68
2022/03/11 07:49:31;;;;;;;26.85;12.73;;;;;;;3.77;40.75;102137.91;2094214;84;30259;-69
2022/03/11 07:52:33;;;;;;;22.55;10.93;;;;;;;3.82;40.71;102131.73;2120887;82;27705;-68
2022/03/11 07:55:35;;;;;;;21.90;13.08;;;;;;;3.89;38.65;102139.74;2135352;83;28946;-68
2022/03/11 07:58:39;;;;;;;20.37;12.07;;;;;;;3.88;39.22;102140.65;2135634;83;31848;-70
2022/03/11 08:01:40;;;;;;;25.45;11.95;;;;;;;3.92;39.28;102138.45;2136024;83;32979;-69
2022/03/11 08:04:42;;;;;;;18.65;10.63;;;;;;;4.05;39.52;102140.77;2135938;83;29320;-68
2022/03/11 08:07:47;;;;;;;17.80;10.82;;;;;;;4.13;39.03;102138.16;2136082;83;27953;-67
2022/03/11 08:10:49;;;;;;;22.32;11.25;;;;;;;4.38;37.00;102129.92;2139539;83;28700;-69
2022/03/11 08:13:51;;;;;;;20.10;10.48;;;;;;;4.41;37.32;102130.37;2137938;83;31009;-68
2022/03/11 08:16:53;;;;;;;21.12;11.08;;;;;;;4.47;36.94;102126.89;2135538;83;33150;-69
2022/03/11 08:19:55;;;;;;;22.17;10.88;;;;;;;4.59;37.16;102131.34;2135461;83;29305;-69
2022/03/11 08:22:57;;;;;;;20.17;11.45;;;;;;;4.59;36.22;102132.67;2165052;81;27734;-68
2022/03/11 08:25:58;;;;;;;19.42;10.90;;;;;;;4.72;36.75;102129.19;2134774;81;28680;-68
2022/03/11 08:29:00;;;;;;;20.68;10.50;;;;;;;4.85;35.67;102125.73;2104175;84;31174;-69
2022/03/11 08:32:03;;;;;;;19.15;10.13;;;;;;;4.85;36.06;102133.70;2104060;84;32935;-68
2022/03/11 08:35:06;;;;;;;18.85;9.75;;;;;;;4.78;36.73;102127.90;2102766;84;28827;-68
2022/03/11 08:38:08;;;;;;;16.87;9.90;;;;;;;4.70;35.61;102125.21;2109323;83;27832;-69
2022/03/11 08:41:10;;;;;;;23.75;11.10;;;;;;;4.47;36.09;102130.41;2120763;83;28620;-69
2022/03/11 08:44:12;;;;;;;19.70;10.72;;;;;;;4.12;35.89;102132.86;2142963;83;31175;-68
2022/03/11 08:47:14;;;;;;;21.40;9.88;;;;;;;3.86;35.16;102129.14;2125852;83;32985;-68
2022/03/11 08:50:17;;;;;;;18.30;10.05;;;;;;;3.61;36.19;102122.74;2125077;83;30021;-68
2022/03/11 08:53:19;;;;;;;23.98;10.10;;;;;;;3.44;34.94;102123.89;2130254;82;27963;-68
2022/03/11 08:56:22;;;;;;;27.20;11.33;;;;;;;3.26;35.67;102133.89;2119697;83;28767;-69
2022/03/11 08:59:23;;;;;;;17.98;10.05;;;;;;;3.11;36.07;102134.59;2119258;84;31926;-68
2022/03/11 09:02:26;;;;;;;19.98;9.95;;;;;;;3.04;35.88;102123.95;2119973;83;32983;-67
2022/03/11 09:05:28;;;;;;;23.65;12.47;;;;;;;3.06;35.89;102130.58;2119922;83;29322;-68
2022/03/11 09:08:29;;;;;;;20.55;10.40;;;;;;;3.02;35.89;102126.11;2120199;83;27701;-68
2022/03/11 09:11:33;;;;;;;22.00;11.08;;;;;;;2.99;36.33;102125.66;2120036;83;28652;-67
2022/03/11 09:14:34;;;;;;;17.70;10.43;;;;;;;3.12;36.34;102131.08;2132121;83;31219;-67
2022/03/11 09:17:37;;;;;;;18.80;10.38;;;;;;;3.19;36.41;102121.02;2142825;82;32918;-67
2022/03/11 09:20:40;;;;;;;22.13;10.78;;;;;;;3.18;35.50;102112.17;2127349;82;29323;-68
2022/03/11 09:23:43;;;;;;;20.40;10.30;;;;;;;3.18;35.45;102109.97;2147695;82;27721;-67
2022/03/11 09:26:45;;;;;;;19.65;10.32;;;;;;;3.22;36.04;102109.56;2157725;82;28647;-67
2022/03/11 09:29:47;;;;;;;18.77;9.53;;;;;;;3.24;35.57;102106.04;2157560;82;31816;-67
2022/03/11 09:32:48;;;;;;;15.23;9.60;;;;;;;3.27;35.98;102106.53;2157728;82;33551;-67
2022/03/11 09:35:50;;;;;;;18.65;9.83;;;;;;;3.25;34.37;102097.67;2157804;81;30080;-67
2022/03/11 09:38:52;;;;;;;19.87;9.05;;;;;;;3.24;34.63;102105.17;2108946;81;27665;-67
2022/03/11 09:41:54;;;;;;;14.93;8.48;;;;;;;3.21;34.75;102103.81;2100189;84;28850;-67
2022/03/11 09:44:57;;;;;;;17.90;9.13;;;;;;;3.18;34.29;102110.84;2100952;83;32093;-67
2022/03/11 09:47:58;;;;;;;16.87;8.88;;;;;;;3.23;34.12;102112.66;2099989;84;33078;-68
2022/03/11 09:51:01;;;;;;;17.73;8.68;;;;;;;3.28;33.47;102110.95;2115920;82;29328;-67
2022/03/11 09:54:04;;;;;;;14.93;7.85;;;;;;;3.30;33.45;102112.73;2158464;81;27696;-68
2022/03/11 09:57:05;;;;;;;15.68;8.48;;;;;;;3.30;34.51;102110.54;2158153;81;28716;-67
2022/03/11 10:00:10;;;;;;;15.30;8.10;;;;;;;3.34;33.98;102107.92;2158339;81;31013;-67
2022/03/11 10:03:12;;;;;;;20.17;8.07;;;;;;;3.38;33.18;102112.81;2143958;82;32965;-68
2022/03/11 10:06:13;;;;;;;14.73;7.72;;;;;;;3.43;34.17;102111.52;2144043;82;29315;-71
2022/03/11 10:09:24;;;;;;;13.15;7.45;;;;;;;3.53;34.30;102108.52;2131007;83;27657;-67
2022/03/11 10:12:29;;;;;;;14.25;6.90;;;;;;;3.58;33.05;102101.52;2119846;84;29433;-67
2022/03/11 10:15:31;;;;;;;14.05;7.75;;;;;;;3.53;32.74;102097.92;2119851;83;31018;-66
2022/03/11 10:18:33;;;;;;;13.05;6.90;;;;;;;3.55;32.23;102105.03;2132287;83;32947;-67
2022/03/11 10:21:42;;;;;;;16.80;7.37;;;;;;;3.62;32.83;102104.20;2136324;82;29388;-67
2022/03/11 10:24:44;;;;;;;16.23;7.90;;;;;;;3.69;32.89;102093.66;2130231;82;27648;-68
2022/03/11 10:28:12;;;;;;;14.63;6.90;;;;;;;3.77;33.63;102094.59;2100535;84;28710;-67
2022/03/11 10:31:13;;;;;;;12.28;6.30;;;;;;;3.77;31.71;102096.81;2100076;84;31077;-67
2022/03/11 10:34:31;;;;;;;11.28;6.12;;;;;;;3.70;31.31;102094.11;2076890;84;33064;-67
2022/03/11 10:37:32;;;;;;;13.83;6.45;;;;;;;3.70;32.07;102096.76;2106802;84;29345;-67
2022/03/11 10:40:44;;;;;;;13.98;7.17;;;;;;;3.70;31.12;102092.78;2118282;83;28075;-66
2022/03/11 10:43:46;;;;;;;11.25;6.37;;;;;;;3.68;31.41;102082.60;2118597;83;28820;-67
2022/03/11 10:46:49;;;;;;;13.20;6.45;;;;;;;3.72;31.12;102090.58;2129873;83;32010;-66
2022/03/11 10:49:53;;;;;;;18.17;6.17;;;;;;;3.74;31.01;102089.25;2125105;82;34190;-67
2022/03/11 10:52:56;;;;;;;13.70;7.20;;;;;;;3.80;31.41;102086.66;2128304;82;30082;-68
2022/03/11 10:56:07;;;;;;;11.93;6.15;;;;;;;3.81;30.23;102076.52;2119295;83;27679;-68
2022/03/11 10:59:23;;;;;;;16.05;7.33;;;;;;;3.84;30.73;102071.66;2131736;83;28785;-67
2022/03/11 11:02:25;;;;;;;12.03;6.25;;;;;;;3.89;29.29;102073.91;2107049;83;31304;-67
2022/03/11 11:05:28;;;;;;;11.93;6.05;;;;;;;3.94;31.34;102075.71;2106019;84;33044;-66
2022/03/11 11:08:30;;;;;;;10.70;6.30;;;;;;;4.01;30.51;102066.03;2120128;83;30186;-67
2022/03/11 11:11:32;;;;;;;15.55;6.67;;;;;;;4.03;30.70;102062.95;2132876;82;27743;-68
2022/03/11 11:14:34;;;;;;;12.15;6.50;;;;;;;4.06;30.60;102060.75;2106122;83;28820;-67
2022/03/11 11:17:39;;;;;;;14.13;7.00;;;;;;;4.13;30.80;102051.09;2132999;83;31089;-68
2022/03/11 11:20:50;;;;;;;14.05;6.28;;;;;;;4.16;29.40;102055.06;2138459;82;32950;-68
2022/03/11 11:23:57;;;;;;;10.32;5.87;;;;;;;4.15;30.06;102050.63;2157666;82;29501;-68
2022/03/11 11:27:00;;;;;;;13.83;6.55;;;;;;;4.21;29.56;102037.41;2157754;82;27701;-68
2022/03/11 11:30:03;;;;;;;8.03;5.37;;;;;;;4.22;30.40;102045.81;2157648;82;28821;-70
2022/03/11 11:33:05;;;;;;;11.38;6.55;;;;;;;4.27;29.20;102036.13;2157591;82;31030;-69
2022/03/11 11:36:07;;;;;;;14.78;6.28;;;;;;;4.32;29.84;102037.47;2157172;81;33723;-68
2022/03/11 11:39:12;;;;;;;10.13;5.08;;;;;;;4.37;29.45;102038.38;2153720;82;30325;-68
2022/03/11 11:42:15;;;;;;;12.53;6.12;;;;;;;4.39;29.67;102028.63;2135479;82;27693;-68
2022/03/11 11:45:17;;;;;;;9.48;5.80;;;;;;;4.46;29.28;102025.14;2119671;83;29567;-68
2022/03/11 11:48:43;;;;;;;13.53;6.10;;;;;;;4.49;29.51;102033.54;2109702;84;32136;-67
2022/03/11 11:51:53;;;;;;;13.83;6.78;;;;;;;4.54;28.78;102020.76;2119295;82;33193;-69
2022/03/11 11:55:19;;;;;;;14.70;6.62;;;;;;;4.58;29.19;102022.97;2126172;83;30123;-67
2022/03/11 11:58:24;;;;;;;15.63;6.80;;;;;;;4.60;28.97;102017.23;2126320;83;27643;-68
2022/03/11 12:01:47;;;;;;;15.15;6.40;;;;;;;4.66;28.84;102013.70;2126235;83;29503;-69
2022/03/11 12:04:49;;;;;;;14.07;6.30;;;;;;;4.70;29.40;102008.86;2126390;83;31101;-68
2022/03/11 12:07:51;;;;;;;12.95;6.12;;;;;;;4.74;28.91;102001.77;2130200;82;32954;-69
2022/03/11 12:10:53;;;;;;;12.28;6.55;;;;;;;4.78;29.02;102001.78;2129639;82;30088;-68
2022/03/11 12:14:04;;;;;;;9.85;5.67;;;;;;;4.83;29.45;102004.02;2106613;83;27690;-69
2022/03/11 12:17:08;;;;;;;11.33;5.58;;;;;;;4.87;27.93;101996.93;2095982;84;29479;-69
2022/03/11 12:20:27;;;;;;;14.23;6.47;;;;;;;4.89;28.24;101992.94;2109594;84;31035;-69
2022/03/11 12:23:36;;;;;;;11.93;6.15;;;;;;;4.90;28.59;101989.39;2098234;84;33986;-69
2022/03/11 12:26:38;;;;;;;14.60;7.60;;;;;;;4.95;29.24;101984.56;2109702;84;29340;-69
2022/03/11 12:29:42;;;;;;;10.18;5.22;;;;;;;4.98;28.60;101981.02;2109782;84;28322;-69
2022/03/11 12:32:43;;;;;;;12.85;6.60;;;;;;;5.00;27.76;101986.76;2109866;84;28756;-68
2022/03/11 12:35:48;;;;;;;16.82;5.97;;;;;;;5.01;28.25;101969.06;2109706;84;31845;-68
2022/03/11 12:38:52;;;;;;;10.65;5.70;;;;;;;5.08;29.02;101965.51;2117268;82;33096;-67
2022/03/11 12:41:54;;;;;;;11.18;6.10;;;;;;;5.15;27.80;101967.72;2126067;83;28828;-68
2022/03/11 12:44:56;;;;;;;9.78;5.87;;;;;;;5.17;28.37;101968.61;2126208;83;27706;-67
2022/03/11 12:47:58;;;;;;;11.12;5.35;;;;;;;5.18;28.31;101962.41;2126317;83;28820;-68
2022/03/11 12:51:07;;;;;;;11.70;5.70;;;;;;;5.20;27.32;101954.00;2126209;83;31078;-68
2022/03/11 12:54:17;;;;;;;12.03;6.33;;;;;;;5.23;28.24;101950.45;2126187;83;34120;-68
2022/03/11 12:57:19;;;;;;;11.60;5.78;;;;;;;5.26;28.33;101951.35;2126244;83;28925;-68
2022/03/11 13:00:25;;;;;;;13.25;6.03;;;;;;;5.26;27.42;101946.04;2126331;83;27684;-67
2022/03/11 13:03:28;;;;;;;;;;;;;;;5.26;28.07;101943.38;2128982;83;29746;-68
2022/03/11 13:06:31;;;;;;;11.33;5.87;;;;;;;5.28;27.68;101936.72;2126219;83;31033;-68
2022/03/11 13:09:33;;;;;;;13.38;5.50;;;;;;;5.28;28.10;101933.64;2132331;82;32565;-67
2022/03/11 13:12:37;;;;;;;13.65;5.70;;;;;;;5.33;27.67;101934.50;2125844;83;30170;-67
2022/03/11 13:15:43;;;;;;;13.10;6.05;;;;;;;5.36;27.86;101934.05;2125882;83;27699;-67
2022/03/11 13:18:45;;;;;;;15.70;5.60;;;;;;;5.39;28.21;101931.41;2126264;83;28834;-67
2022/03/11 13:21:48;;;;;;;13.90;6.40;;;;;;;5.44;27.78;101933.16;2120773;83;31257;-67
2022/03/11 13:25:04;;;;;;;10.38;5.10;;;;;;;5.48;27.60;101935.36;2117326;83;33983;-68
2022/03/11 13:28:06;;;;;;;10.68;5.30;;;;;;;5.51;27.48;101934.48;2124896;83;30105;-69
2022/03/11 13:31:27;;;;;;;9.93;5.70;;;;;;;5.51;27.06;101924.72;2115981;83;27669;-68
2022/03/11 13:34:34;;;;;;;12.60;6.10;;;;;;;5.52;26.63;101927.83;2116472;82;28912;-65
2022/03/11 13:37:43;;;;;;;8.43;5.22;;;;;;;5.52;27.95;101913.20;2124589;83;31553;-67
2022/03/11 13:40:51;;;;;;;11.08;6.28;;;;;;;5.54;27.68;101911.43;2120704;83;33805;-65
2022/03/11 13:44:00;;;;;;;13.20;5.97;;;;;;;5.54;27.87;101910.56;2089472;85;29439;-66
2022/03/11 13:47:07;;;;;;;8.78;5.33;;;;;;;5.56;27.83;101917.63;2065073;85;27864;-67
2022/03/11 13:50:10;;;;;;;11.55;6.08;;;;;;;5.60;27.67;101913.19;2089972;85;28817;-69
2022/03/11 13:53:13;;;;;;;11.33;6.08;;;;;;;5.63;27.52;101912.72;2098440;84;31041;-68
2022/03/11 13:56:17;;;;;;;10.85;5.92;;;;;;;5.65;28.17;101903.42;2064860;84;33795;-67
2022/03/11 13:59:33;;;;;;;7.17;4.85;;;;;;;5.67;27.79;101904.31;2115806;83;29331;-66
2022/03/11 14:02:35;;;;;;;13.48;6.45;;;;;;;5.69;27.32;101907.85;2115834;83;27702;-67